createdAt,value
2019-03-17T00:02:22.879Z,25.48
2019-03-17T00:04:56.480Z,21.73
2019-03-17T00:07:30.495Z,21.25
2019-03-17T00:10:06.539Z,24.43
2019-03-17T00:12:40.620Z,21.85
2019-03-17T00:15:14.830Z,24.92
2019-03-17T00:17:48.923Z,22.27
2019-03-17T00:20:22.702Z,26.37
2019-03-17T00:22:56.467Z,22.77
2019-03-17T00:25:30.230Z,22.20
2019-03-17T00:28:04.294Z,24.90
2019-03-17T00:30:38.483Z,26.27
2019-03-17T00:33:11.829Z,23.85
2019-03-17T00:35:45.426Z,29.55
2019-03-17T00:38:19.255Z,27.82
2019-03-17T00:40:54.366Z,26.80
2019-03-17T00:43:28.083Z,29.00
2019-03-17T00:46:01.828Z,27.62
2019-03-17T00:48:35.691Z,28.85
2019-03-17T00:51:09.491Z,31.82
2019-03-17T00:53:44.639Z,26.82
2019-03-17T00:56:18.554Z,27.83
2019-03-17T00:58:52.148Z,29.72
2019-03-17T01:01:25.715Z,29.80
2019-03-17T01:04:00.043Z,32.40
2019-03-17T01:06:34.887Z,30.90
2019-03-17T01:09:08.881Z,33.15
2019-03-17T01:11:42.589Z,31.30
2019-03-17T01:14:16.474Z,30.10
2019-03-17T01:16:50.122Z,31.57
2019-03-17T01:19:24.076Z,31.90
2019-03-17T01:21:59.395Z,35.58
2019-03-17T01:24:34.071Z,30.50
2019-03-17T01:27:07.900Z,34.60
2019-03-17T01:29:41.484Z,32.23
2019-03-17T01:32:15.000Z,34.35
2019-03-17T01:34:48.871Z,37.20
2019-03-17T01:37:22.711Z,35.50
2019-03-17T01:39:56.341Z,34.78
2019-03-17T01:42:30.796Z,32.75
2019-03-17T01:45:04.662Z,35.05
2019-03-17T01:47:38.325Z,31.45
2019-03-17T01:50:12.211Z,30.48
2019-03-17T01:52:45.743Z,29.18
2019-03-17T01:55:19.168Z,27.45
2019-03-17T01:57:53.024Z,29.48
2019-03-17T02:00:26.966Z,31.23
2019-03-17T02:03:01.371Z,25.82
2019-03-17T02:05:35.156Z,28.17
2019-03-17T02:08:09.004Z,30.05
2019-03-17T02:10:42.457Z,29.25
2019-03-17T02:13:16.652Z,28.87
2019-03-17T02:15:51.389Z,37.50
2019-03-17T02:18:25.673Z,29.30
2019-03-17T02:20:59.490Z,27.20
2019-03-17T02:23:33.440Z,29.55
2019-03-17T02:26:08.458Z,30.35
2019-03-17T02:28:42.104Z,27.20
2019-03-17T02:31:17.207Z,29.70
2019-03-17T02:34:12.351Z,26.25
2019-03-17T02:36:45.964Z,23.75
2019-03-17T02:39:20.053Z,27.15
2019-03-17T02:41:53.859Z,25.48
2019-03-17T02:44:29.395Z,27.30
2019-03-17T02:47:03.296Z,26.52
2019-03-17T02:49:38.878Z,28.32
2019-03-17T02:52:13.229Z,30.05
2019-03-17T02:54:47.335Z,28.42
2019-03-17T02:57:21.301Z,28.10
2019-03-17T02:59:55.508Z,25.72
2019-03-17T03:02:29.469Z,31.37
2019-03-17T03:05:02.990Z,28.52
2019-03-17T03:07:36.799Z,28.02
2019-03-17T03:10:10.689Z,30.60
2019-03-17T03:12:44.964Z,36.00
2019-03-17T03:15:19.451Z,33.57
2019-03-17T03:17:53.022Z,32.10
2019-03-17T03:20:27.090Z,31.02
2019-03-17T03:23:02.422Z,33.02
2019-03-17T03:25:36.693Z,35.35
2019-03-17T03:28:10.999Z,33.45
2019-03-17T03:30:45.146Z,31.85
2019-03-17T03:33:19.243Z,40.43
2019-03-17T03:36:09.160Z,33.92
2019-03-17T03:38:28.406Z,34.23
2019-03-17T03:41:02.178Z,39.00
2019-03-17T03:43:35.900Z,33.35
2019-03-17T03:46:10.142Z,35.08
2019-03-17T03:48:44.291Z,30.67
2019-03-17T03:51:18.150Z,34.27
2019-03-17T03:53:52.248Z,32.00
2019-03-17T03:56:26.081Z,33.80
2019-03-17T03:59:01.249Z,32.58
2019-03-17T04:01:35.667Z,32.38
2019-03-17T04:04:10.582Z,29.67
2019-03-17T04:06:44.841Z,35.98
2019-03-17T04:09:18.842Z,39.43
2019-03-17T04:11:53.052Z,33.48
2019-03-17T04:14:26.785Z,30.23
2019-03-17T04:17:01.371Z,32.20
2019-03-17T04:19:36.648Z,32.55
2019-03-17T04:24:43.541Z,32.60
2019-03-17T04:27:17.761Z,34.63
2019-03-17T04:29:51.695Z,32.75
2019-03-17T04:32:25.902Z,32.13
2019-03-17T04:34:59.515Z,34.70
2019-03-17T04:37:33.439Z,34.88
2019-03-17T04:40:09.974Z,34.00
2019-03-17T04:42:44.690Z,31.68
2019-03-17T04:45:19.049Z,31.37
2019-03-17T04:47:53.894Z,35.75
2019-03-17T04:50:35.143Z,30.32
2019-03-17T04:53:09.806Z,31.70
2019-03-17T04:55:43.507Z,33.33
2019-03-17T04:58:18.111Z,31.70
2019-03-17T05:00:52.159Z,33.02
2019-03-17T05:03:26.208Z,35.78
2019-03-17T05:06:00.825Z,35.48
2019-03-17T05:08:34.617Z,31.80
2019-03-17T05:11:09.575Z,28.65
2019-03-17T05:13:44.120Z,28.50
2019-03-17T05:16:18.684Z,31.73
2019-03-17T05:18:54.650Z,36.68
2019-03-17T05:21:32.096Z,35.90
2019-03-17T05:24:06.422Z,37.83
2019-03-17T05:26:46.753Z,37.83
2019-03-17T05:29:20.876Z,37.00
2019-03-17T05:31:57.039Z,35.70
2019-03-17T05:34:32.079Z,30.30
2019-03-17T05:39:40.988Z,28.27
2019-03-17T05:42:15.838Z,27.13
2019-03-17T05:44:50.897Z,24.63
2019-03-17T05:49:58.832Z,26.20
2019-03-17T05:52:33.671Z,26.68
2019-03-17T05:55:10.198Z,27.52
2019-03-17T05:57:45.670Z,26.27
2019-03-17T06:00:21.035Z,21.52
2019-03-17T06:02:55.675Z,24.50
2019-03-17T06:05:30.017Z,21.97
2019-03-17T06:08:04.630Z,26.65
2019-03-17T06:10:39.471Z,24.55
2019-03-17T06:13:14.527Z,26.37
2019-03-17T06:15:49.041Z,27.10
2019-03-17T06:18:24.496Z,24.52
2019-03-17T06:21:00.328Z,28.10
2019-03-17T06:23:35.385Z,24.82
2019-03-17T06:26:11.328Z,26.30
2019-03-17T06:28:45.503Z,25.65
2019-03-17T06:31:19.818Z,27.02
2019-03-17T06:33:54.297Z,24.27
2019-03-17T06:36:29.135Z,27.95
2019-03-17T06:39:05.003Z,30.43
2019-03-17T06:41:40.761Z,26.10
2019-03-17T06:44:15.265Z,28.62
2019-03-17T06:46:49.627Z,33.42
2019-03-17T06:49:24.128Z,27.07
2019-03-17T06:52:02.055Z,29.42
2019-03-17T06:54:36.869Z,32.55
2019-03-17T06:57:11.756Z,28.85
2019-03-17T06:59:46.599Z,27.93
2019-03-17T07:02:21.067Z,28.75
2019-03-17T07:04:55.948Z,28.35
2019-03-17T07:07:30.039Z,31.75
2019-03-17T07:10:04.803Z,32.83
2019-03-17T07:12:39.996Z,33.95
2019-03-17T07:17:48.275Z,27.40
2019-03-17T07:20:23.062Z,27.52
2019-03-17T07:22:57.988Z,25.37
2019-03-17T07:25:32.682Z,27.58
2019-03-17T07:28:07.066Z,27.80
2019-03-17T07:30:42.249Z,25.37
2019-03-17T07:35:49.864Z,32.15
2019-03-17T07:38:24.809Z,25.55
2019-03-17T07:41:02.055Z,27.90
2019-03-17T07:43:39.187Z,26.60
2019-03-17T07:46:16.752Z,30.15
2019-03-17T07:48:51.451Z,31.90
2019-03-17T07:51:27.023Z,26.93
2019-03-17T07:54:01.985Z,25.00
2019-03-17T07:56:38.535Z,31.65
2019-03-17T07:59:14.298Z,31.62
2019-03-17T08:01:49.110Z,27.48
2019-03-17T08:04:24.840Z,28.85
2019-03-17T08:06:59.462Z,31.70
2019-03-17T08:09:34.446Z,36.05
2019-03-17T08:12:12.146Z,33.38
2019-03-17T08:14:46.873Z,29.20
2019-03-17T08:17:22.928Z,30.70
2019-03-17T08:22:58.836Z,26.50
2019-03-17T08:25:33.951Z,23.90
2019-03-17T08:28:08.271Z,31.35
2019-03-17T08:30:53.147Z,26.73
2019-03-17T08:33:23.890Z,29.72
2019-03-17T08:35:59.813Z,25.35
2019-03-17T08:38:36.416Z,27.22
2019-03-17T08:41:12.165Z,23.73
2019-03-17T08:43:54.150Z,26.87
2019-03-17T08:46:24.982Z,43.10
2019-03-17T08:49:00.087Z,27.90
2019-03-17T08:51:34.671Z,27.25
2019-03-17T08:54:09.619Z,23.57
2019-03-17T08:56:45.927Z,25.45
2019-03-17T08:59:20.362Z,24.45
2019-03-17T09:01:54.539Z,23.33
2019-03-17T09:04:29.070Z,21.57
2019-03-17T09:07:05.022Z,22.13
2019-03-17T09:09:41.788Z,22.27
2019-03-17T09:12:17.933Z,35.08
2019-03-17T09:14:52.429Z,25.43
2019-03-17T09:17:26.926Z,22.50
2019-03-17T09:20:01.025Z,25.50
2019-03-17T09:22:35.316Z,22.65
2019-03-17T09:25:10.487Z,19.00
2019-03-17T09:27:45.929Z,21.82
2019-03-17T09:30:25.462Z,17.92
2019-03-17T09:32:59.323Z,23.80
2019-03-17T09:35:35.882Z,17.32
2019-03-17T09:38:10.655Z,20.00
2019-03-17T09:40:45.451Z,23.98
2019-03-17T09:43:19.610Z,21.65
2019-03-17T09:45:54.407Z,20.30
2019-03-17T09:48:30.648Z,22.50
2019-03-17T09:51:05.036Z,26.37
2019-03-17T09:53:39.202Z,20.17
2019-03-17T09:56:13.715Z,24.60
2019-03-17T09:58:48.593Z,22.67
2019-03-17T10:01:23.011Z,18.57
2019-03-17T10:03:57.585Z,20.55
2019-03-17T10:06:32.279Z,19.45
2019-03-17T10:09:07.220Z,21.62
2019-03-17T10:11:41.077Z,21.65
2019-03-17T10:14:15.760Z,18.48
2019-03-17T10:16:49.861Z,18.92
2019-03-17T10:19:24.940Z,21.00
2019-03-17T10:21:59.050Z,15.78
2019-03-17T10:24:33.116Z,26.43
2019-03-17T10:27:08.892Z,16.17
2019-03-17T10:29:42.995Z,13.22
2019-03-17T10:32:16.916Z,18.10
2019-03-17T10:34:51.035Z,17.65
2019-03-17T10:37:24.938Z,16.73
2019-03-17T10:39:58.757Z,18.95
2019-03-17T10:42:34.390Z,15.58
2019-03-17T10:45:10.708Z,18.55
2019-03-17T10:47:45.323Z,16.17
2019-03-17T10:50:23.604Z,14.55
2019-03-17T10:52:58.127Z,16.27
2019-03-17T10:55:32.257Z,15.08
2019-03-17T10:58:05.926Z,15.40
2019-03-17T11:00:40.461Z,16.10
2019-03-17T11:03:14.768Z,14.10
2019-03-17T11:05:49.090Z,13.00
2019-03-17T11:08:22.850Z,13.77
2019-03-17T11:10:57.069Z,14.68
2019-03-17T11:13:31.942Z,15.93
2019-03-17T11:16:07.029Z,21.20
2019-03-17T11:18:41.259Z,22.07
2019-03-17T11:21:15.979Z,26.77
2019-03-17T11:23:50.087Z,24.00
2019-03-17T11:26:24.914Z,21.07
2019-03-17T11:29:00.690Z,16.25
2019-03-17T11:31:35.178Z,17.35
2019-03-17T11:34:10.356Z,20.00
2019-03-17T11:36:45.145Z,18.50
2019-03-17T11:39:19.554Z,16.82
2019-03-17T11:41:53.661Z,19.67
2019-03-17T11:44:28.176Z,16.85
2019-03-17T11:47:02.951Z,16.05
2019-03-17T11:49:37.341Z,16.87
2019-03-17T11:52:11.529Z,16.73
2019-03-17T11:54:47.181Z,19.92
2019-03-17T11:57:21.012Z,17.27
2019-03-17T11:59:55.707Z,18.35
2019-03-17T12:02:29.652Z,17.85
2019-03-17T12:05:04.776Z,17.20
2019-03-17T12:10:14.280Z,20.02
2019-03-17T12:12:49.763Z,20.10
2019-03-17T12:15:28.174Z,21.50
2019-03-17T12:18:04.170Z,19.65
2019-03-17T12:20:38.519Z,18.50
2019-03-17T12:23:13.077Z,18.43
2019-03-17T12:25:47.541Z,21.02
2019-03-17T12:28:22.243Z,20.43
2019-03-17T12:30:56.378Z,21.07
2019-03-17T12:33:30.815Z,21.27
2019-03-17T12:36:04.992Z,19.23
2019-03-17T12:38:40.338Z,22.35
2019-03-17T12:41:16.892Z,20.43
2019-03-17T12:43:53.741Z,23.05
2019-03-17T12:46:30.466Z,19.25
2019-03-17T12:49:05.392Z,23.98
2019-03-17T12:51:41.250Z,22.40
2019-03-17T12:54:20.265Z,23.90
2019-03-17T12:57:02.784Z,25.27
2019-03-17T12:59:37.687Z,23.40
2019-03-17T13:02:12.817Z,21.70
2019-03-17T13:07:22.236Z,25.20
2019-03-17T13:09:57.923Z,22.87
2019-03-17T13:12:32.216Z,22.73
2019-03-17T13:15:13.016Z,25.60
2019-03-17T13:17:47.849Z,24.72
2019-03-17T13:20:30.144Z,21.45
2019-03-17T13:23:06.062Z,22.45
2019-03-17T13:25:40.025Z,27.13
2019-03-17T13:28:17.402Z,27.50
2019-03-17T13:30:53.456Z,27.13
2019-03-17T13:33:29.284Z,26.12
2019-03-17T13:36:03.669Z,23.60
2019-03-17T13:38:39.054Z,25.90
2019-03-17T13:41:13.637Z,32.93
2019-03-17T13:43:48.056Z,33.02
2019-03-17T13:46:22.312Z,31.65
2019-03-17T13:48:58.079Z,28.05
2019-03-17T13:51:36.126Z,26.27
2019-03-17T13:54:11.937Z,32.15
2019-03-17T13:56:47.968Z,34.40
2019-03-17T13:59:26.127Z,34.55
2019-03-17T14:02:02.587Z,28.73
2019-03-17T14:04:37.428Z,28.92
2019-03-17T14:07:13.128Z,37.53
2019-03-17T14:09:47.200Z,32.30
2019-03-17T14:12:24.807Z,29.63
2019-03-17T14:14:59.816Z,29.23
2019-03-17T14:17:34.557Z,32.67
2019-03-17T14:20:11.571Z,29.07
2019-03-17T14:22:49.689Z,31.93
2019-03-17T14:25:36.331Z,31.05
2019-03-17T14:28:12.446Z,31.73
2019-03-17T14:30:46.894Z,27.58
2019-03-17T14:33:21.846Z,32.03
2019-03-17T14:35:58.140Z,30.17
2019-03-17T14:38:32.421Z,31.80
2019-03-17T14:41:08.066Z,31.55
2019-03-17T14:43:44.342Z,32.28
2019-03-17T14:46:18.867Z,33.88
2019-03-17T14:48:53.370Z,34.80
2019-03-17T14:51:31.455Z,30.00
2019-03-17T14:54:05.781Z,32.05
2019-03-17T14:56:42.161Z,33.23
2019-03-17T14:59:22.386Z,29.65
2019-03-17T15:02:00.979Z,30.20
2019-03-17T15:04:36.994Z,29.75
2019-03-17T15:07:11.343Z,27.95
2019-03-17T15:09:47.894Z,29.57
2019-03-17T15:12:23.689Z,33.63
2019-03-17T15:15:00.040Z,31.93
2019-03-17T15:17:34.963Z,36.63
2019-03-17T15:20:13.120Z,36.88
2019-03-17T15:22:51.121Z,37.98
2019-03-17T15:25:25.897Z,36.25
2019-03-17T15:28:02.288Z,34.75
2019-03-17T15:30:42.176Z,37.58
2019-03-17T15:33:19.075Z,38.50
2019-03-17T15:35:54.429Z,41.13
2019-03-17T15:38:34.089Z,37.00
2019-03-17T15:41:18.628Z,38.45
2019-03-17T15:43:48.492Z,39.00
2019-03-17T15:46:22.304Z,40.80
2019-03-17T15:48:57.579Z,39.00
2019-03-17T15:54:06.248Z,40.98
2019-03-17T15:56:42.809Z,43.13
2019-03-17T15:59:18.284Z,40.75
2019-03-17T16:01:52.768Z,44.77
2019-03-17T16:04:28.595Z,44.85
2019-03-17T16:07:02.578Z,45.65
2019-03-17T16:09:39.690Z,44.58
2019-03-17T16:12:16.565Z,43.58
2019-03-17T16:14:52.759Z,49.35
2019-03-17T16:17:30.009Z,45.95
2019-03-17T16:20:09.324Z,46.85
2019-03-17T16:22:44.171Z,46.55
2019-03-17T16:25:20.635Z,41.75
2019-03-17T16:27:55.067Z,47.08
2019-03-17T16:30:31.437Z,53.90
2019-03-17T16:33:11.306Z,50.17
2019-03-17T16:35:47.584Z,50.00
2019-03-17T16:38:22.071Z,46.77
2019-03-17T16:40:59.023Z,49.10
2019-03-17T16:43:39.679Z,50.03
2019-03-17T16:46:14.961Z,41.65
2019-03-17T16:48:54.602Z,41.92
2019-03-17T16:51:30.660Z,42.93
2019-03-17T16:54:10.004Z,41.88
2019-03-17T16:57:01.785Z,47.95
2019-03-17T16:59:36.721Z,41.15
2019-03-17T17:02:10.915Z,46.10
2019-03-17T17:04:45.623Z,45.52
2019-03-17T17:07:22.594Z,47.53
2019-03-17T17:09:56.859Z,51.73
2019-03-17T17:12:31.397Z,51.02
2019-03-17T17:15:06.864Z,55.50
2019-03-17T17:17:41.474Z,53.38
2019-03-17T17:20:20.264Z,50.08
2019-03-17T17:22:55.419Z,47.55
2019-03-17T17:25:29.710Z,55.73
2019-03-17T17:28:04.697Z,50.25
2019-03-17T17:30:42.413Z,58.23
2019-03-17T17:33:19.977Z,56.48
2019-03-17T17:36:03.031Z,53.60
2019-03-17T17:38:38.593Z,60.30
2019-03-17T17:41:13.318Z,53.17
2019-03-17T17:43:47.820Z,51.25
2019-03-17T17:46:24.508Z,52.33
2019-03-17T17:48:59.017Z,53.02
2019-03-17T17:51:33.220Z,52.88
2019-03-17T17:54:08.157Z,52.60
2019-03-17T17:59:17.327Z,50.60
2019-03-17T18:01:53.874Z,48.20
2019-03-17T18:04:28.208Z,46.73
2019-03-17T18:07:02.932Z,51.53
2019-03-17T18:12:20.322Z,47.80
2019-03-17T18:14:46.488Z,51.73
2019-03-17T18:17:20.532Z,46.63
2019-03-17T18:19:57.360Z,55.45
2019-03-17T18:22:32.263Z,51.55
2019-03-17T18:25:07.905Z,47.80
2019-03-17T18:27:42.092Z,52.30
2019-03-17T18:30:23.556Z,49.45
2019-03-17T18:32:57.941Z,45.88
2019-03-17T18:35:32.215Z,49.55
2019-03-17T18:38:06.047Z,44.15
2019-03-17T18:40:42.262Z,44.93
2019-03-17T18:45:53.739Z,48.95
2019-03-17T18:48:28.298Z,42.88
2019-03-17T18:51:02.377Z,46.53
2019-03-17T18:53:36.258Z,45.67
2019-03-17T18:56:10.158Z,50.55
2019-03-17T18:58:44.935Z,45.85
2019-03-17T19:01:18.585Z,50.00
2019-03-17T19:03:52.369Z,48.60
2019-03-17T19:06:26.608Z,46.85
2019-03-17T19:09:00.989Z,47.25
2019-03-17T19:11:35.131Z,45.90
2019-03-17T19:14:08.667Z,35.85
2019-03-17T19:16:43.112Z,41.83
2019-03-17T19:19:18.072Z,40.10
2019-03-17T19:24:24.959Z,36.85
2019-03-17T19:26:59.441Z,36.75
2019-03-17T19:29:33.441Z,35.60
2019-03-17T19:32:07.610Z,37.73
2019-03-17T19:34:41.337Z,36.08
2019-03-17T19:37:15.094Z,36.05
2019-03-17T19:39:49.232Z,35.80
2019-03-17T19:42:22.738Z,34.18
2019-03-17T19:44:56.357Z,37.63
2019-03-17T19:47:31.256Z,34.53
2019-03-17T19:50:10.588Z,34.43
2019-03-17T19:52:44.920Z,41.13
2019-03-17T19:55:19.392Z,38.10
2019-03-17T19:57:53.764Z,34.27
2019-03-17T20:00:28.237Z,35.43
2019-03-17T20:03:02.245Z,31.65
2019-03-17T20:05:36.491Z,35.10
2019-03-17T20:10:44.959Z,34.98
2019-03-17T20:13:19.276Z,32.98
2019-03-17T20:15:53.533Z,35.67
2019-03-17T20:18:27.784Z,36.77
2019-03-17T20:21:01.766Z,32.23
2019-03-17T20:23:35.957Z,28.55
2019-03-17T20:26:09.959Z,32.83
2019-03-17T20:28:44.235Z,31.27
2019-03-17T20:31:17.934Z,31.82
2019-03-17T20:33:51.370Z,31.80
2019-03-17T20:36:25.346Z,35.33
2019-03-17T20:38:59.074Z,30.43
2019-03-17T20:41:32.754Z,35.28
2019-03-17T20:44:06.375Z,32.23
2019-03-17T20:46:40.455Z,33.30
2019-03-17T20:49:14.667Z,31.48
2019-03-17T20:51:48.464Z,31.70
2019-03-17T20:54:22.590Z,33.20
2019-03-17T20:56:56.852Z,35.10
2019-03-17T20:59:30.428Z,38.60
2019-03-17T21:02:03.919Z,39.25
2019-03-17T21:04:37.825Z,38.80
2019-03-17T21:07:12.652Z,38.17
2019-03-17T21:09:48.105Z,40.83
2019-03-17T21:12:21.805Z,38.30
2019-03-17T21:14:55.818Z,39.13
2019-03-17T21:17:30.385Z,34.43
2019-03-17T21:20:04.242Z,39.27
2019-03-17T21:22:38.431Z,39.10
2019-03-17T21:25:12.167Z,39.70
2019-03-17T21:27:46.058Z,40.73
2019-03-17T21:30:22.096Z,38.42
2019-03-17T21:32:57.756Z,40.40
2019-03-17T21:35:32.065Z,41.75
2019-03-17T21:38:05.972Z,40.12
2019-03-17T21:40:56.169Z,44.10
2019-03-17T21:43:16.015Z,45.88
2019-03-17T21:45:50.253Z,40.83
2019-03-17T21:48:24.449Z,45.60
2019-03-17T21:50:58.675Z,42.70
2019-03-17T21:53:32.021Z,45.80
2019-03-17T21:56:07.235Z,37.25
2019-03-17T21:58:41.159Z,42.00
2019-03-17T22:01:15.566Z,38.33
2019-03-17T22:03:50.359Z,33.40
2019-03-17T22:06:24.245Z,37.98
2019-03-17T22:08:58.615Z,35.15
2019-03-17T22:11:32.941Z,28.80
2019-03-17T22:14:12.023Z,38.88
2019-03-17T22:16:52.868Z,34.00
2019-03-17T22:19:26.671Z,32.07
2019-03-17T22:22:01.074Z,31.12
2019-03-17T22:24:35.283Z,37.38
2019-03-17T22:27:09.390Z,33.13
2019-03-17T22:29:43.401Z,33.15
2019-03-17T22:32:17.795Z,32.75
2019-03-17T22:34:52.954Z,33.65
2019-03-17T22:39:58.504Z,30.23
2019-03-17T22:42:33.214Z,30.65
2019-03-17T22:45:09.698Z,37.48
2019-03-17T22:47:44.109Z,40.63
2019-03-17T22:50:19.295Z,42.00
2019-03-17T22:55:25.531Z,34.43
2019-03-17T22:57:59.504Z,32.80
2019-03-17T23:00:37.879Z,34.70
2019-03-17T23:03:13.200Z,35.25
2019-03-17T23:05:50.157Z,31.60
2019-03-17T23:08:24.005Z,32.33
2019-03-17T23:10:58.345Z,37.75
2019-03-17T23:13:33.555Z,32.80
2019-03-17T23:16:07.146Z,36.42
2019-03-17T23:18:41.252Z,35.55
2019-03-17T23:21:15.370Z,30.77
2019-03-17T23:23:49.182Z,40.00
2019-03-17T23:26:23.069Z,34.10
2019-03-17T23:28:57.103Z,29.90
2019-03-17T23:31:32.213Z,35.28
2019-03-17T23:34:06.066Z,31.35
2019-03-17T23:36:39.919Z,37.03
2019-03-17T23:39:13.658Z,32.53
2019-03-17T23:41:47.458Z,31.68
2019-03-17T23:44:21.085Z,38.17
2019-03-17T23:46:55.325Z,31.40
2019-03-17T23:49:29.059Z,33.05
2019-03-17T23:52:03.248Z,35.75
2019-03-17T23:54:36.940Z,30.68
2019-03-17T23:57:10.639Z,33.95
2019-03-17T23:59:44.964Z,32.40
